Time;durP1;ratioP1;P1;durP2;ratioP2;P2;SDS_P1;SDS_P2;PMS_P1;PMS_P2;Temp;Humidity;BMP_temperature;BMP_pressure;BME280_temperature;BME280_humidity;BME280_pressure;Samples;Min_cycle;Max_cycle;Signal;HPM_P1;HPM_P2
2022/07/27 00:01:38;;;;;;;9.77;8.88;;;;;;;;;;4975002;28;20015;-72
2022/07/27 00:04:04;;;;;;;13.60;9.15;;;;;;;;;;4974693;28;20501;-72
2022/07/27 00:06:31;;;;;;;10.85;9.10;;;;;;;;;;4974966;28;20042;-72
2022/07/27 00:08:57;;;;;;;10.75;9.10;;;;;;;;;;4974540;28;20034;-72
2022/07/27 00:11:23;;;;;;;12.10;9.25;;;;;;;;;;4974776;28;20022;-72
2022/07/27 00:13:49;;;;;;;11.85;8.55;;;;;;;;;;4974762;28;20022;-72
2022/07/27 00:16:15;;;;;;;10.07;9.05;;;;;;;;;;4974811;28;20478;-72
2022/07/27 00:18:41;;;;;;;11.93;9.63;;;;;;;;;;4974671;28;20058;-72
2022/07/27 00:21:07;;;;;;;10.85;9.52;;;;;;;;;;4974435;28;20025;-72
2022/07/27 00:23:33;;;;;;;12.77;9.07;;;;;;;;;;4974131;28;20054;-72
2022/07/27 00:25:59;;;;;;;18.10;10.07;;;;;;;;;;4974415;28;20097;-72
2022/07/27 00:28:25;;;;;;;11.65;9.85;;;;;;;;;;4974370;28;20015;-72
2022/07/27 00:30:51;;;;;;;14.18;9.32;;;;;;;;;;4974335;28;20022;-72
2022/07/27 00:33:19;;;;;;;10.35;8.88;;;;;;;;;;4974418;28;20141;-72
2022/07/27 00:35:45;;;;;;;14.95;9.00;;;;;;;;;;4974326;28;20031;-72
2022/07/27 00:38:11;;;;;;;10.75;8.80;;;;;;;;;;4974136;28;20537;-72
2022/07/27 00:40:37;;;;;;;11.27;8.70;;;;;;;;;;4974349;28;20061;-72
2022/07/27 00:43:03;;;;;;;10.57;9.48;;;;;;;;;;4974441;28;20397;-72
2022/07/27 00:45:29;;;;;;;11.23;9.52;;;;;;;;;;4974077;28;20083;-72
2022/07/27 00:47:55;;;;;;;11.35;9.48;;;;;;;;;;4974152;28;20022;-73
2022/07/27 00:50:21;;;;;;;12.43;9.40;;;;;;;;;;4974158;28;20069;-73
2022/07/27 00:52:48;;;;;;;14.95;8.95;;;;;;;;;;4974398;28;20041;-73
2022/07/27 00:55:17;;;;;;;10.50;8.60;;;;;;;;;;4997350;23;20078;-73
2022/07/27 00:57:43;;;;;;;11.23;9.05;;;;;;;;;;4993553;28;20031;-73
2022/07/27 01:00:09;;;;;;;9.52;8.43;;;;;;;;;;4993388;28;20059;-72
2022/07/27 01:02:35;;;;;;;10.45;8.15;;;;;;;;;;4993339;28;20446;-72
2022/07/27 01:05:01;;;;;;;11.75;9.10;;;;;;;;;;4993502;28;20034;-72
2022/07/27 01:07:30;;;;;;;11.35;8.73;;;;;;;;;;4993468;28;20098;-72
2022/07/27 01:09:57;;;;;;;10.13;8.32;;;;;;;;;;4976075;28;20022;-72
2022/07/27 01:12:24;;;;;;;9.88;8.35;;;;;;;;;;4993338;28;20031;-72
2022/07/27 01:14:51;;;;;;;11.05;9.18;;;;;;;;;;4975873;28;20026;-72
2022/07/27 01:17:17;;;;;;;10.55;8.30;;;;;;;;;;4993337;28;20026;-72
2022/07/27 01:19:44;;;;;;;11.50;9.07;;;;;;;;;;4993383;28;20030;-72
2022/07/27 01:22:10;;;;;;;11.23;9.18;;;;;;;;;;4993216;28;20473;-72
2022/07/27 01:24:37;;;;;;;12.10;9.13;;;;;;;;;;4993349;28;20034;-72
2022/07/27 01:27:03;;;;;;;10.75;8.82;;;;;;;;;;4999875;28;20051;-73
2022/07/27 01:29:30;;;;;;;11.93;8.45;;;;;;;;;;4999938;28;20065;-72
2022/07/27 01:31:57;;;;;;;10.75;8.40;;;;;;;;;;4993047;28;20014;-72
2022/07/27 01:34:23;;;;;;;8.65;7.72;;;;;;;;;;4993079;28;20026;-72
2022/07/27 01:36:49;;;;;;;10.23;8.95;;;;;;;;;;4993049;28;20077;-72
2022/07/27 01:39:16;;;;;;;16.27;9.13;;;;;;;;;;4975413;28;20026;-72
2022/07/27 01:41:43;;;;;;;14.70;9.20;;;;;;;;;;4975385;28;20034;-71
2022/07/27 01:44:09;;;;;;;11.02;9.15;;;;;;;;;;4992689;28;20040;-72
2022/07/27 01:46:35;;;;;;;12.02;8.80;;;;;;;;;;4992954;28;20029;-72
2022/07/27 01:49:01;;;;;;;10.52;8.35;;;;;;;;;;4992851;28;20018;-71
2022/07/27 01:51:27;;;;;;;13.05;8.30;;;;;;;;;;4993048;28;20030;-72
2022/07/27 01:53:53;;;;;;;10.82;8.15;;;;;;;;;;4992672;28;20022;-73
2022/07/27 01:56:26;;;;;;;9.75;8.23;;;;;;;;;;5879641;23;20029;-71
2022/07/27 01:58:53;;;;;;;12.93;7.80;;;;;;;;;;4974980;28;20102;-72
2022/07/27 02:01:20;;;;;;;10.55;7.30;;;;;;;;;;4978302;28;20512;-72
2022/07/27 02:03:46;;;;;;;9.27;8.02;;;;;;;;;;4978924;28;20045;-72
2022/07/27 02:06:12;;;;;;;8.82;7.40;;;;;;;;;;4996647;28;20015;-72
2022/07/27 02:08:39;;;;;;;12.60;7.75;;;;;;;;;;4996541;28;20027;-72
2022/07/27 02:13:49;;;;;;;8.82;7.07;;;;;;;;;;4996622;28;20161;-72
2022/07/27 02:16:16;;;;;;;9.45;7.55;;;;;;;;;;4996627;28;20026;-72
2022/07/27 02:18:42;;;;;;;9.10;7.60;;;;;;;;;;4996525;28;20505;-72
2022/07/27 02:21:09;;;;;;;8.48;7.60;;;;;;;;;;4978409;28;20026;-72
2022/07/27 02:23:36;;;;;;;8.18;7.30;;;;;;;;;;4996145;28;20374;-72
2022/07/27 02:26:02;;;;;;;10.68;8.50;;;;;;;;;;4996299;28;20041;-72
2022/07/27 02:28:28;;;;;;;11.80;8.13;;;;;;;;;;4995975;28;20019;-72
2022/07/27 02:30:54;;;;;;;9.70;7.60;;;;;;;;;;4996113;28;20026;-72
2022/07/27 02:33:20;;;;;;;8.98;7.13;;;;;;;;;;4996300;28;20037;-72
2022/07/27 02:35:46;;;;;;;8.45;7.60;;;;;;;;;;4978133;28;20030;-73
2022/07/27 02:38:12;;;;;;;11.98;7.97;;;;;;;;;;4996055;28;20030;-73
2022/07/27 02:40:38;;;;;;;11.43;8.07;;;;;;;;;;4996033;28;20097;-73
2022/07/27 02:43:05;;;;;;;8.68;7.78;;;;;;;;;;4978543;28;20038;-73
2022/07/27 02:45:31;;;;;;;9.45;8.07;;;;;;;;;;4995859;28;20030;-73
2022/07/27 02:47:57;;;;;;;9.75;7.95;;;;;;;;;;4995902;28;20049;-73
2022/07/27 02:50:23;;;;;;;12.25;8.27;;;;;;;;;;4995785;28;20029;-73
2022/07/27 02:52:49;;;;;;;18.42;8.75;;;;;;;;;;4995764;28;20491;-73
2022/07/27 02:55:15;;;;;;;10.70;7.15;;;;;;;;;;4995452;28;20030;-73
2022/07/27 02:57:41;;;;;;;8.80;7.80;;;;;;;;;;4995451;28;20057;-73
2022/07/27 03:00:10;;;;;;;12.40;7.50;;;;;;;;;;4995718;28;20026;-74
2022/07/27 03:02:36;;;;;;;8.07;6.78;;;;;;;;;;4995505;28;20030;-74
2022/07/27 03:05:03;;;;;;;10.27;7.60;;;;;;;;;;4995649;28;20054;-73
2022/07/27 03:07:29;;;;;;;8.38;7.57;;;;;;;;;;4995494;28;20461;-73
2022/07/27 03:09:55;;;;;;;10.27;8.52;;;;;;;;;;4995744;28;20018;-73
2022/07/27 03:12:22;;;;;;;11.32;7.95;;;;;;;;;;4994027;28;20031;-73
2022/07/27 03:14:48;;;;;;;9.23;7.45;;;;;;;;;;4995379;28;20029;-73
2022/07/27 03:17:14;;;;;;;10.07;8.10;;;;;;;;;;4995475;28;20413;-73
2022/07/27 03:19:40;;;;;;;10.82;8.55;;;;;;;;;;4995319;28;20049;-71
2022/07/27 03:22:06;;;;;;;10.50;7.97;;;;;;;;;;4995132;28;20027;-72
2022/07/27 03:24:32;;;;;;;10.02;7.88;;;;;;;;;;4995018;28;20037;-71
2022/07/27 03:26:58;;;;;;;12.88;8.13;;;;;;;;;;4995378;28;20034;-72
2022/07/27 03:29:24;;;;;;;8.88;7.97;;;;;;;;;;4995032;28;20041;-72
2022/07/27 03:31:51;;;;;;;10.27;7.38;;;;;;;;;;4994916;28;20101;-72
2022/07/27 03:34:17;;;;;;;11.23;8.18;;;;;;;;;;4995002;28;20026;-72
2022/07/27 03:36:43;;;;;;;10.25;7.93;;;;;;;;;;4994897;28;20393;-72
2022/07/27 03:39:09;;;;;;;9.93;8.35;;;;;;;;;;4994886;28;20023;-72
2022/07/27 03:41:35;;;;;;;9.68;7.55;;;;;;;;;;4994773;28;20023;-72
2022/07/27 03:44:01;;;;;;;10.05;8.13;;;;;;;;;;4994543;28;20041;-72
2022/07/27 03:46:27;;;;;;;8.60;7.35;;;;;;;;;;4994807;28;20097;-72
2022/07/27 03:48:55;;;;;;;8.82;7.93;;;;;;;;;;4994487;28;20469;-72
2022/07/27 03:51:21;;;;;;;11.45;8.40;;;;;;;;;;4994639;28;20028;-72
2022/07/27 03:53:48;;;;;;;10.52;8.10;;;;;;;;;;4994528;28;20022;-72
2022/07/27 03:56:14;;;;;;;10.98;8.20;;;;;;;;;;4994345;28;20026;-72
2022/07/27 03:58:40;;;;;;;8.68;7.70;;;;;;;;;;4994156;28;20041;-72
2022/07/27 04:01:06;;;;;;;10.35;8.43;;;;;;;;;;4977234;28;20046;-72
2022/07/27 04:03:32;;;;;;;14.85;8.52;;;;;;;;;;4994481;28;20043;-72
2022/07/27 04:05:58;;;;;;;11.65;8.32;;;;;;;;;;4994297;28;20018;-71
2022/07/27 04:08:24;;;;;;;10.02;8.00;;;;;;;;;;4976513;28;20342;-71
2022/07/27 04:10:50;;;;;;;9.50;8.50;;;;;;;;;;4994177;28;20109;-72
2022/07/27 04:13:17;;;;;;;9.63;8.50;;;;;;;;;;4994180;28;20026;-72
2022/07/27 04:15:43;;;;;;;12.25;8.88;;;;;;;;;;4994123;28;20019;-72
2022/07/27 04:18:09;;;;;;;12.35;8.18;;;;;;;;;;4994202;28;20445;-72
2022/07/27 04:20:35;;;;;;;8.68;7.75;;;;;;;;;;4994131;28;20018;-72
2022/07/27 04:23:01;;;;;;;14.70;9.68;;;;;;;;;;4993532;28;20034;-72
2022/07/27 04:25:27;;;;;;;13.02;8.48;;;;;;;;;;4976303;28;20081;-71
2022/07/27 04:27:53;;;;;;;14.00;9.20;;;;;;;;;;4976489;28;20475;-72
2022/07/27 04:30:19;;;;;;;11.82;8.63;;;;;;;;;;4993722;28;20014;-72
2022/07/27 04:32:46;;;;;;;10.90;8.52;;;;;;;;;;4993884;28;20392;-72
2022/07/27 04:35:12;;;;;;;15.10;9.23;;;;;;;;;;4993535;28;20097;-72
2022/07/27 04:37:38;;;;;;;14.02;10.20;;;;;;;;;;4976003;28;20026;-72
2022/07/27 04:40:06;;;;;;;11.32;9.65;;;;;;;;;;4993486;28;20022;-72
2022/07/27 04:42:32;;;;;;;13.77;10.00;;;;;;;;;;4993725;28;20030;-72
2022/07/27 04:44:58;;;;;;;14.73;9.40;;;;;;;;;;4993402;28;20457;-72
2022/07/27 04:50:00;;;;;;;14.23;9.25;;;;;;;;;;5590814;23;20050;-72
2022/07/27 04:52:26;;;;;;;12.10;9.23;;;;;;;;;;4943307;28;20078;-72
2022/07/27 04:54:53;;;;;;;12.40;9.00;;;;;;;;;;4985704;28;20119;-72
2022/07/27 04:57:20;;;;;;;12.48;9.20;;;;;;;;;;4975807;28;20022;-72
2022/07/27 04:59:46;;;;;;;11.90;8.18;;;;;;;;;;4993614;28;20113;-72
2022/07/27 05:02:12;;;;;;;8.80;7.85;;;;;;;;;;4993260;28;20026;-72
2022/07/27 05:04:38;;;;;;;9.38;8.35;;;;;;;;;;4976082;28;20030;-72
2022/07/27 05:07:04;;;;;;;12.05;9.13;;;;;;;;;;4975901;28;20042;-73
2022/07/27 05:09:30;;;;;;;9.90;8.48;;;;;;;;;;4993270;28;20050;-72
2022/07/27 05:11:56;;;;;;;9.95;8.38;;;;;;;;;;4993499;28;20026;-73
2022/07/27 05:14:22;;;;;;;9.88;8.85;;;;;;;;;;4970905;28;20023;-72
2022/07/27 05:16:49;;;;;;;9.77;8.75;;;;;;;;;;4984327;28;20477;-72
2022/07/27 05:19:15;;;;;;;12.45;8.50;;;;;;;;;;4992938;28;20038;-72
2022/07/27 05:21:41;;;;;;;11.23;7.93;;;;;;;;;;4993273;28;20022;-73
2022/07/27 05:24:08;;;;;;;8.55;7.72;;;;;;;;;;4978946;28;20050;-72
2022/07/27 05:26:34;;;;;;;11.57;7.70;;;;;;;;;;4977632;28;20030;-72
2022/07/27 05:29:01;;;;;;;10.35;7.82;;;;;;;;;;4973283;28;20106;-72
2022/07/27 05:31:27;;;;;;;11.18;8.55;;;;;;;;;;5485876;23;20133;-72
2022/07/27 05:33:53;;;;;;;11.48;8.20;;;;;;;;;;4953215;28;20443;-72
2022/07/27 05:36:19;;;;;;;16.65;9.32;;;;;;;;;;4957636;29;20054;-74
2022/07/27 05:38:45;;;;;;;11.50;8.15;;;;;;;;;;4968290;28;20019;-72
2022/07/27 05:41:11;;;;;;;12.02;8.27;;;;;;;;;;4986009;28;20039;-72
2022/07/27 05:43:37;;;;;;;10.32;8.50;;;;;;;;;;4959710;28;20461;-72
2022/07/27 05:46:03;;;;;;;9.60;8.52;;;;;;;;;;4977797;28;20394;-72
2022/07/27 05:48:30;;;;;;;9.90;8.00;;;;;;;;;;4959962;28;20075;-72
2022/07/27 05:50:56;;;;;;;13.30;10.00;;;;;;;;;;4959568;28;20030;-72
2022/07/27 05:53:22;;;;;;;10.85;7.95;;;;;;;;;;4977402;28;20105;-72
2022/07/27 05:55:48;;;;;;;9.98;8.52;;;;;;;;;;4977480;28;20022;-72
2022/07/27 05:58:14;;;;;;;12.32;8.38;;;;;;;;;;4977036;28;20031;-72
2022/07/27 06:00:40;;;;;;;10.15;8.25;;;;;;;;;;4977150;28;20371;-72
2022/07/27 06:03:06;;;;;;;13.23;9.35;;;;;;;;;;4977336;28;20062;-72
2022/07/27 06:05:33;;;;;;;9.02;7.93;;;;;;;;;;4977164;28;20027;-72
2022/07/27 06:07:59;;;;;;;14.25;9.50;;;;;;;;;;4977111;28;20030;-72
2022/07/27 06:10:26;;;;;;;9.98;8.55;;;;;;;;;;4977176;28;20030;-72
2022/07/27 06:12:52;;;;;;;9.95;8.38;;;;;;;;;;4977482;28;20026;-72
2022/07/27 06:15:18;;;;;;;9.52;8.57;;;;;;;;;;4977385;28;20069;-72
2022/07/27 06:17:51;;;;;;;10.77;9.00;;;;;;;;;;4959495;28;20055;-72
2022/07/27 06:20:17;;;;;;;9.73;8.73;;;;;;;;;;4976861;28;20038;-73
2022/07/27 06:22:48;;;;;;;10.73;9.57;;;;;;;;;;4976595;28;20082;-72
2022/07/27 06:25:14;;;;;;;11.93;9.82;;;;;;;;;;4977222;28;20393;-72
2022/07/27 06:27:40;;;;;;;14.25;9.07;;;;;;;;;;4988667;28;20030;-72
2022/07/27 06:30:06;;;;;;;10.35;9.35;;;;;;;;;;4978451;28;20047;-72
2022/07/27 06:32:33;;;;;;;10.68;8.77;;;;;;;;;;4961709;28;20105;-72
2022/07/27 06:35:00;;;;;;;12.90;10.32;;;;;;;;;;4957298;29;20023;-72
2022/07/27 06:37:28;;;;;;;12.55;10.35;;;;;;;;;;4957304;29;20545;-72
2022/07/27 06:39:55;;;;;;;11.32;9.88;;;;;;;;;;4956956;29;20034;-72
2022/07/27 06:42:21;;;;;;;11.60;10.05;;;;;;;;;;4957061;29;20023;-72
2022/07/27 06:44:47;;;;;;;13.30;10.32;;;;;;;;;;4957130;29;20031;-72
2022/07/27 06:47:13;;;;;;;10.52;9.25;;;;;;;;;;4956653;28;20020;-72
2022/07/27 06:49:39;;;;;;;14.85;11.35;;;;;;;;;;4957021;29;20031;-72
2022/07/27 06:52:09;;;;;;;12.30;10.07;;;;;;;;;;4956918;29;20023;-72
2022/07/27 06:54:35;;;;;;;11.00;9.90;;;;;;;;;;4956948;29;20027;-72
2022/07/27 06:57:01;;;;;;;11.82;9.60;;;;;;;;;;4957052;29;20027;-72
2022/07/27 06:59:27;;;;;;;12.27;9.75;;;;;;;;;;4956766;29;20030;-72
2022/07/27 07:01:53;;;;;;;11.20;9.98;;;;;;;;;;4957168;29;20035;-72
2022/07/27 07:04:19;;;;;;;11.90;10.68;;;;;;;;;;4956638;29;20039;-72
2022/07/27 07:06:45;;;;;;;15.25;12.38;;;;;;;;;;4956760;29;20038;-72
2022/07/27 07:09:11;;;;;;;12.43;10.52;;;;;;;;;;4956489;29;20027;-72
2022/07/27 07:11:37;;;;;;;14.98;12.93;;;;;;;;;;4956525;29;20034;-72
2022/07/27 07:14:03;;;;;;;16.60;12.43;;;;;;;;;;4956889;29;20184;-73
2022/07/27 07:16:29;;;;;;;13.95;11.35;;;;;;;;;;4956578;29;20047;-72
2022/07/27 07:18:55;;;;;;;14.65;12.25;;;;;;;;;;4956668;29;20038;-72
2022/07/27 07:21:21;;;;;;;11.50;10.30;;;;;;;;;;4956601;29;20478;-72
2022/07/27 07:23:48;;;;;;;11.82;10.63;;;;;;;;;;4956813;29;20078;-72
2022/07/27 07:26:14;;;;;;;14.43;11.88;;;;;;;;;;4956097;29;20027;-72
2022/07/27 07:28:40;;;;;;;12.10;10.90;;;;;;;;;;4956581;28;20094;-72
2022/07/27 07:31:06;;;;;;;13.88;10.85;;;;;;;;;;4956265;28;20051;-71
2022/07/27 07:33:32;;;;;;;12.18;10.98;;;;;;;;;;4956051;29;20486;-72
2022/07/27 07:35:58;;;;;;;17.95;11.52;;;;;;;;;;4956179;29;20031;-72
2022/07/27 07:38:24;;;;;;;12.40;11.23;;;;;;;;;;4956081;29;20082;-72
2022/07/27 07:40:50;;;;;;;16.83;12.00;;;;;;;;;;4956008;29;20023;-72
2022/07/27 07:43:16;;;;;;;12.13;10.93;;;;;;;;;;4955737;29;20114;-72
2022/07/27 07:45:43;;;;;;;11.45;10.18;;;;;;;;;;4956043;29;20031;-72
2022/07/27 07:48:10;;;;;;;12.55;10.80;;;;;;;;;;4955852;29;20031;-72
2022/07/27 07:50:36;;;;;;;12.02;10.82;;;;;;;;;;4955825;29;20023;-72
2022/07/27 07:53:03;;;;;;;13.52;10.90;;;;;;;;;;4955821;29;20051;-72
2022/07/27 07:55:29;;;;;;;12.93;11.20;;;;;;;;;;4955558;29;20023;-72
2022/07/27 07:57:55;;;;;;;11.77;10.60;;;;;;;;;;4954946;28;20019;-72
2022/07/27 08:00:22;;;;;;;11.93;10.73;;;;;;;;;;4955392;29;20027;-72
2022/07/27 08:02:49;;;;;;;10.98;9.98;;;;;;;;;;4955554;29;20106;-72
2022/07/27 08:05:16;;;;;;;11.45;10.25;;;;;;;;;;4955492;29;20023;-72
2022/07/27 08:07:42;;;;;;;11.68;10.52;;;;;;;;;;4955443;29;20054;-72
2022/07/27 08:10:09;;;;;;;11.35;9.93;;;;;;;;;;4955487;29;20531;-72
2022/07/27 08:12:39;;;;;;;10.85;9.75;;;;;;;;;;4955500;29;20371;-71
2022/07/27 08:15:06;;;;;;;11.23;9.65;;;;;;;;;;4955567;29;20032;-72
2022/07/27 08:17:32;;;;;;;10.57;9.57;;;;;;;;;;4955338;29;20055;-72
2022/07/27 08:19:58;;;;;;;10.63;9.57;;;;;;;;;;4955447;29;20083;-72
2022/07/27 08:22:24;;;;;;;14.68;9.40;;;;;;;;;;4955415;29;20043;-72
2022/07/27 08:24:50;;;;;;;10.57;9.48;;;;;;;;;;4955242;29;20031;-71
2022/07/27 08:27:16;;;;;;;12.05;10.15;;;;;;;;;;4955108;29;20024;-71
2022/07/27 08:29:43;;;;;;;12.00;10.82;;;;;;;;;;4954900;28;20031;-71
2022/07/27 08:32:09;;;;;;;10.75;9.65;;;;;;;;;;4955000;28;20047;-72
2022/07/27 08:34:35;;;;;;;11.25;10.15;;;;;;;;;;4955111;29;20478;-72
2022/07/27 08:37:01;;;;;;;10.50;9.50;;;;;;;;;;4954971;29;20027;-72
2022/07/27 08:39:27;;;;;;;11.88;10.07;;;;;;;;;;4937783;29;20038;-71
2022/07/27 08:41:54;;;;;;;12.57;10.40;;;;;;;;;;4954896;29;20071;-72
2022/07/27 08:44:22;;;;;;;12.65;10.18;;;;;;;;;;4937597;29;20129;-73
2022/07/27 08:46:49;;;;;;;10.30;9.32;;;;;;;;;;4937684;29;20375;-72
2022/07/27 08:49:16;;;;;;;10.65;9.60;;;;;;;;;;4954990;29;20143;-72
2022/07/27 08:51:42;;;;;;;10.98;9.98;;;;;;;;;;4954952;29;20039;-72
2022/07/27 08:54:09;;;;;;;11.27;9.45;;;;;;;;;;4954930;29;20027;-72
2022/07/27 08:56:35;;;;;;;14.13;10.70;;;;;;;;;;4954960;29;20024;-72
2022/07/27 08:59:01;;;;;;;10.30;9.30;;;;;;;;;;4954665;29;20098;-72
2022/07/27 09:01:27;;;;;;;11.00;9.90;;;;;;;;;;4955159;29;20065;-71
2022/07/27 09:03:53;;;;;;;26.25;10.93;;;;;;;;;;4954639;29;20035;-74
2022/07/27 09:06:38;;;;;;;11.27;9.40;;;;;;;;;;4937222;29;20087;-72
2022/07/27 09:09:04;;;;;;;10.60;9.57;;;;;;;;;;4954534;28;20059;-72
2022/07/27 09:11:31;;;;;;;10.98;9.88;;;;;;;;;;4954928;29;20019;-72
2022/07/27 09:14:07;;;;;;;14.50;12.48;;;;;;;;;;4954603;29;20046;-72
2022/07/27 09:16:34;;;;;;;10.77;9.68;;;;;;;;;;4954951;29;20050;-72
2022/07/27 09:19:05;;;;;;;10.18;9.27;;;;;;;;;;4954614;29;20059;-72
2022/07/27 09:21:31;;;;;;;12.52;9.27;;;;;;;;;;4954789;29;20074;-72
2022/07/27 09:24:14;;;;;;;9.35;8.38;;;;;;;;;;4954455;29;20039;-72
2022/07/27 09:26:41;;;;;;;9.60;8.60;;;;;;;;;;4942855;29;20031;-72
2022/07/27 09:29:13;;;;;;;9.82;8.82;;;;;;;;;;4954300;28;20479;-72
2022/07/27 09:31:46;;;;;;;10.13;9.15;;;;;;;;;;4954178;28;20537;-73
2022/07/27 09:34:25;;;;;;;10.20;9.20;;;;;;;;;;4954703;29;20383;-73
2022/07/27 09:36:52;;;;;;;9.73;8.65;;;;;;;;;;4954650;29;20027;-73
2022/07/27 09:39:22;;;;;;;11.05;9.93;;;;;;;;;;4954384;29;20026;-72
2022/07/27 09:41:49;;;;;;;9.63;8.73;;;;;;;;;;4954173;29;20487;-73
2022/07/27 09:44:15;;;;;;;10.38;8.45;;;;;;;;;;4954368;29;20550;-73
2022/07/27 09:46:43;;;;;;;9.68;8.73;;;;;;;;;;4954292;29;20028;-73
2022/07/27 09:49:27;;;;;;;9.27;8.38;;;;;;;;;;4954202;29;20497;-72
2022/07/27 09:51:53;;;;;;;10.48;9.13;;;;;;;;;;4954182;29;20054;-72
2022/07/27 09:54:19;;;;;;;11.68;9.07;;;;;;;;;;4954315;29;20074;-71
2022/07/27 09:56:46;;;;;;;9.18;8.20;;;;;;;;;;4954216;29;20055;-72
2022/07/27 09:59:18;;;;;;;11.52;8.05;;;;;;;;;;4954057;29;20086;-71
2022/07/27 10:01:44;;;;;;;9.13;8.23;;;;;;;;;;4936944;29;20039;-73
2022/07/27 10:04:10;;;;;;;10.77;9.68;;;;;;;;;;4953820;29;20529;-72
2022/07/27 10:06:36;;;;;;;11.52;9.05;;;;;;;;;;4954335;29;20027;-72
2022/07/27 10:09:02;;;;;;;9.15;8.25;;;;;;;;;;4954226;29;20038;-72
2022/07/27 10:11:29;;;;;;;13.38;9.23;;;;;;;;;;4954418;29;20023;-73
2022/07/27 10:13:58;;;;;;;9.57;8.52;;;;;;;;;;4954420;29;20545;-73
2022/07/27 10:16:27;;;;;;;11.68;8.43;;;;;;;;;;4936845;29;20031;-72
2022/07/27 10:18:53;;;;;;;9.38;8.48;;;;;;;;;;4936762;29;20065;-72
2022/07/27 10:21:20;;;;;;;13.30;11.90;;;;;;;;;;4955578;28;20043;-73
2022/07/27 10:24:03;;;;;;;8.93;8.05;;;;;;;;;;4957486;29;20042;-72
2022/07/27 10:26:32;;;;;;;9.60;7.53;;;;;;;;;;4957352;29;20023;-72
2022/07/27 10:28:59;;;;;;;8.60;7.10;;;;;;;;;;4957343;28;20029;-72
2022/07/27 10:31:36;;;;;;;8.20;7.35;;;;;;;;;;4957017;28;20047;-72
2022/07/27 10:34:03;;;;;;;7.97;7.22;;;;;;;;;;4957381;29;20046;-72
2022/07/27 10:36:29;;;;;;;7.60;6.93;;;;;;;;;;4957039;29;20387;-72
2022/07/27 10:38:57;;;;;;;7.93;7.22;;;;;;;;;;4957190;29;20028;-73
2022/07/27 10:41:25;;;;;;;8.93;7.97;;;;;;;;;;4957166;29;20035;-73
2022/07/27 10:44:11;;;;;;;8.68;7.68;;;;;;;;;;4939663;29;20560;-72
2022/07/27 10:46:37;;;;;;;9.07;8.18;;;;;;;;;;4957103;29;20418;-73
2022/07/27 10:49:19;;;;;;;9.75;8.38;;;;;;;;;;4957036;29;20086;-73
2022/07/27 10:51:45;;;;;;;8.73;7.88;;;;;;;;;;4957033;29;20023;-73
2022/07/27 10:54:25;;;;;;;8.73;7.50;;;;;;;;;;4956687;29;20024;-73
2022/07/27 10:56:52;;;;;;;8.95;8.05;;;;;;;;;;4956690;29;20034;-72
2022/07/27 10:59:45;;;;;;;12.07;8.18;;;;;;;;;;4956790;29;20054;-73
2022/07/27 11:02:12;;;;;;;8.35;7.63;;;;;;;;;;4952672;29;20459;-73
2022/07/27 11:04:45;;;;;;;9.25;7.40;;;;;;;;;;4956660;29;20039;-74
2022/07/27 11:07:11;;;;;;;10.18;8.23;;;;;;;;;;4956545;29;20030;-72
2022/07/27 11:09:37;;;;;;;9.32;7.35;;;;;;;;;;4956959;29;20490;-74
2022/07/27 11:12:07;;;;;;;8.32;7.47;;;;;;;;;;4956417;29;20478;-73
2022/07/27 11:14:46;;;;;;;9.73;8.68;;;;;;;;;;4939156;29;20040;-73
2022/07/27 11:17:12;;;;;;;8.07;7.28;;;;;;;;;;4956553;29;20050;-73
2022/07/27 11:19:38;;;;;;;8.70;7.80;;;;;;;;;;4956273;29;20529;-73
2022/07/27 11:22:04;;;;;;;8.20;7.40;;;;;;;;;;4956348;29;20027;-73
2022/07/27 11:24:33;;;;;;;8.05;7.25;;;;;;;;;;4956189;29;20034;-74
2022/07/27 11:27:00;;;;;;;8.45;7.55;;;;;;;;;;4956194;29;20023;-73
2022/07/27 11:29:26;;;;;;;12.57;7.40;;;;;;;;;;4956219;28;20023;-74
2022/07/27 11:31:53;;;;;;;8.82;6.35;;;;;;;;;;4955285;28;20051;-73
2022/07/27 11:34:46;;;;;;;7.35;6.00;;;;;;;;;;4955627;29;20016;-73
2022/07/27 11:37:13;;;;;;;6.53;5.82;;;;;;;;;;4951978;29;20475;-72
2022/07/27 11:39:39;;;;;;;7.72;6.82;;;;;;;;;;4956425;29;20420;-72
2022/07/27 11:42:05;;;;;;;8.10;6.82;;;;;;;;;;4955903;29;20108;-74
2022/07/27 11:44:31;;;;;;;9.65;7.15;;;;;;;;;;4955905;29;20035;-71
2022/07/27 11:46:57;;;;;;;11.38;7.78;;;;;;;;;;4955873;29;20024;-72
2022/07/27 11:49:27;;;;;;;9.43;6.75;;;;;;;;;;4955974;29;20055;-72
2022/07/27 11:54:28;;;;;;;9.07;6.97;;;;;;;;;;5148803;23;20141;-73
2022/07/27 11:56:56;;;;;;;7.75;7.00;;;;;;;;;;4977024;28;20025;-73
2022/07/27 11:59:23;;;;;;;12.60;8.13;;;;;;;;;;4993167;28;20026;-72
2022/07/27 12:01:52;;;;;;;8.85;7.15;;;;;;;;;;4994239;28;20026;-73
2022/07/27 12:04:20;;;;;;;18.67;16.67;;;;;;;;;;4992848;28;20030;-73
2022/07/27 12:06:55;;;;;;;9.20;7.70;;;;;;;;;;4994131;28;20088;-74
2022/07/27 12:09:21;;;;;;;8.40;7.57;;;;;;;;;;4993995;28;20027;-73
2022/07/27 12:11:49;;;;;;;13.07;9.02;;;;;;;;;;4993982;28;20572;-73
2022/07/27 12:14:16;;;;;;;9.75;8.23;;;;;;;;;;4993796;28;20381;-72
2022/07/27 12:16:42;;;;;;;9.98;8.13;;;;;;;;;;4992746;28;20125;-73
2022/07/27 12:19:08;;;;;;;9.85;8.93;;;;;;;;;;4993866;28;20022;-73
2022/07/27 12:21:35;;;;;;;11.15;8.32;;;;;;;;;;4994194;28;20085;-73
2022/07/27 12:24:01;;;;;;;8.05;7.32;;;;;;;;;;4993907;28;20441;-73
2022/07/27 12:26:27;;;;;;;10.88;7.30;;;;;;;;;;4993736;28;20019;-74
2022/07/27 12:29:06;;;;;;;20.88;8.60;;;;;;;;;;4993600;28;20481;-73
2022/07/27 12:31:33;;;;;;;15.38;9.25;;;;;;;;;;4993672;28;20037;-73
2022/07/27 12:33:59;;;;;;;10.35;8.25;;;;;;;;;;4994163;28;20429;-73
2022/07/27 12:36:26;;;;;;;9.85;8.55;;;;;;;;;;4993855;28;20062;-73
2022/07/27 12:38:52;;;;;;;8.85;7.95;;;;;;;;;;4992432;28;20058;-73
2022/07/27 12:41:28;;;;;;;13.85;8.70;;;;;;;;;;4993624;28;20033;-73
2022/07/27 12:44:23;;;;;;;10.90;8.95;;;;;;;;;;4993108;28;20049;-73
2022/07/27 12:46:53;;;;;;;9.98;8.18;;;;;;;;;;4914624;29;20123;-72
2022/07/27 12:49:23;;;;;;;9.55;8.55;;;;;;;;;;4914874;29;20485;-73
2022/07/27 12:51:50;;;;;;;8.45;7.45;;;;;;;;;;4914705;29;20036;-73
2022/07/27 12:54:16;;;;;;;9.43;8.30;;;;;;;;;;4914263;29;20110;-73
2022/07/27 12:56:42;;;;;;;10.68;9.00;;;;;;;;;;4914776;29;20396;-73
2022/07/27 12:59:08;;;;;;;16.20;10.07;;;;;;;;;;4914464;29;20105;-73
2022/07/27 13:01:34;;;;;;;11.82;9.15;;;;;;;;;;4914586;29;20048;-73
2022/07/27 13:04:01;;;;;;;10.25;9.27;;;;;;;;;;4898046;29;20095;-73
2022/07/27 13:06:28;;;;;;;10.68;9.60;;;;;;;;;;4914494;29;20469;-73
2022/07/27 13:08:56;;;;;;;12.10;9.07;;;;;;;;;;4914382;29;20173;-73
2022/07/27 13:11:22;;;;;;;10.85;9.35;;;;;;;;;;4898293;29;20035;-73
2022/07/27 13:13:48;;;;;;;10.05;9.20;;;;;;;;;;4898738;29;20032;-73
2022/07/27 13:16:14;;;;;;;11.93;10.68;;;;;;;;;;4914522;29;20084;-73
2022/07/27 13:18:40;;;;;;;10.55;8.15;;;;;;;;;;4914562;29;20028;-73
2022/07/27 13:21:06;;;;;;;11.68;9.05;;;;;;;;;;4914405;29;20028;-73
2022/07/27 13:23:33;;;;;;;12.75;9.45;;;;;;;;;;4965496;28;20058;-74
2022/07/27 13:25:59;;;;;;;10.77;9.68;;;;;;;;;;4993027;28;20106;-74
2022/07/27 13:28:25;;;;;;;10.95;8.05;;;;;;;;;;4993082;28;20026;-74
2022/07/27 13:30:51;;;;;;;8.95;8.10;;;;;;;;;;4993242;28;20022;-74
2022/07/27 13:33:17;;;;;;;10.23;9.15;;;;;;;;;;4992950;28;20046;-74
2022/07/27 13:35:44;;;;;;;21.88;9.82;;;;;;;;;;4993155;28;20081;-73
2022/07/27 13:38:10;;;;;;;10.23;8.20;;;;;;;;;;4992681;28;20049;-72
2022/07/27 13:40:36;;;;;;;9.77;8.77;;;;;;;;;;4993087;28;20526;-73
2022/07/27 13:43:02;;;;;;;9.48;8.18;;;;;;;;;;4974692;28;20480;-73
2022/07/27 13:45:28;;;;;;;13.10;10.85;;;;;;;;;;4992797;28;20026;-73
2022/07/27 13:47:55;;;;;;;10.05;8.85;;;;;;;;;;4993036;28;20094;-73
2022/07/27 13:50:21;;;;;;;9.45;7.93;;;;;;;;;;4992869;28;20039;-72
2022/07/27 13:52:48;;;;;;;8.55;7.60;;;;;;;;;;4992899;28;20038;-73
2022/07/27 13:55:17;;;;;;;10.18;7.88;;;;;;;;;;4992545;28;20117;-73
2022/07/27 13:57:44;;;;;;;11.55;9.15;;;;;;;;;;4996816;28;20062;-74
2022/07/27 14:00:10;;;;;;;10.90;8.88;;;;;;;;;;4996891;28;20026;-72
2022/07/27 14:02:36;;;;;;;9.52;8.52;;;;;;;;;;4996521;28;20019;-73
2022/07/27 14:05:03;;;;;;;8.65;7.85;;;;;;;;;;4996635;28;20490;-73
2022/07/27 14:07:29;;;;;;;13.82;9.00;;;;;;;;;;4996550;28;20014;-73
2022/07/27 14:12:40;;;;;;;8.00;7.30;;;;;;;;;;4996352;28;20037;-73
2022/07/27 14:15:06;;;;;;;10.02;8.25;;;;;;;;;;4996675;28;20030;-73
2022/07/27 14:17:32;;;;;;;10.82;8.10;;;;;;;;;;4996102;28;20462;-73
2022/07/27 14:19:58;;;;;;;8.57;7.53;;;;;;;;;;4996336;28;20101;-73
2022/07/27 14:22:24;;;;;;;13.75;8.52;;;;;;;;;;4995814;28;20018;-73
2022/07/27 14:24:50;;;;;;;12.57;8.48;;;;;;;;;;4978848;28;20073;-73
2022/07/27 14:27:16;;;;;;;10.07;9.00;;;;;;;;;;4996081;28;20022;-73
2022/07/27 14:29:42;;;;;;;9.23;7.97;;;;;;;;;;4978276;28;20389;-72
2022/07/27 14:32:08;;;;;;;9.40;8.23;;;;;;;;;;4996202;28;20022;-73
2022/07/27 14:34:35;;;;;;;10.55;9.55;;;;;;;;;;4996183;28;20122;-72
2022/07/27 14:37:01;;;;;;;10.30;9.18;;;;;;;;;;4978342;28;20382;-73
2022/07/27 14:39:27;;;;;;;8.90;8.07;;;;;;;;;;4996090;28;20026;-72
2022/07/27 14:41:54;;;;;;;10.02;8.77;;;;;;;;;;4995954;28;20476;-73
2022/07/27 14:44:20;;;;;;;9.38;8.00;;;;;;;;;;4995641;28;20469;-73